Time;durP1;ratioP1;P1;durP2;ratioP2;P2;SDS_P1;SDS_P2;PMS_P1;PMS_P2;Temp;Humidity;BMP_temperature;BMP_pressure;BME280_temperature;BME280_humidity;BME280_pressure;Samples;Min_cycle;Max_cycle;Signal;HPM_P1;HPM_P2
2022/06/21 00:00:22;;;;;;;9.73;3.28;;;;;;;;;;5008186;28;20045;-70
2022/06/21 00:02:49;;;;;;;9.45;3.00;;;;;;;;;;5009880;28;20046;-71
2022/06/21 00:05:20;;;;;;;7.78;2.50;;;;;;;;;;5008512;28;20057;-71
2022/06/21 00:07:46;;;;;;;9.23;2.60;;;;;;;;;;5010089;28;20081;-71
2022/06/21 00:10:16;;;;;;;5.93;2.15;;;;;;;;;;5012016;28;20057;-70
2022/06/21 00:12:42;;;;;;;7.03;2.22;;;;;;;;;;5012417;28;20454;-70
2022/06/21 00:15:09;;;;;;;7.18;2.47;;;;;;;;;;5011716;28;20056;-70
2022/06/21 00:17:35;;;;;;;11.68;3.40;;;;;;;;;;5011282;28;20135;-68
2022/06/21 00:20:01;;;;;;;5.82;2.95;;;;;;;;;;5012838;28;20536;-69
2022/06/21 00:22:27;;;;;;;5.45;3.10;;;;;;;;;;5011025;28;20050;-69
2022/06/21 00:24:53;;;;;;;9.13;3.10;;;;;;;;;;5013028;28;20089;-69
2022/06/21 00:27:21;;;;;;;6.70;2.42;;;;;;;;;;5012374;28;20085;-70
2022/06/21 00:29:47;;;;;;;10.85;3.00;;;;;;;;;;5011539;28;20046;-69
2022/06/21 00:32:15;;;;;;;10.90;3.50;;;;;;;;;;5011543;28;20506;-70
2022/06/21 00:34:41;;;;;;;6.60;2.95;;;;;;;;;;5011210;28;20046;-69
2022/06/21 00:37:20;;;;;;;8.63;3.30;;;;;;;;;;5011532;28;20046;-70
2022/06/21 00:39:46;;;;;;;14.98;4.70;;;;;;;;;;5012180;28;20052;-70
2022/06/21 00:42:18;;;;;;;9.25;3.72;;;;;;;;;;5012075;28;20115;-69
2022/06/21 00:44:47;;;;;;;10.35;3.58;;;;;;;;;;5011097;28;20045;-69
2022/06/21 00:47:13;;;;;;;;;;;;;;;;;;5028317;28;20050;-69
2022/06/21 00:49:48;;;;;;;7.53;3.80;;;;;;;;;;5010776;28;19948;-69
2022/06/21 00:52:17;;;;;;;15.60;4.20;;;;;;;;;;5012162;28;20494;-69
2022/06/21 00:54:54;;;;;;;12.27;4.65;;;;;;;;;;5012105;28;20132;-70
2022/06/21 00:57:21;;;;;;;12.40;4.18;;;;;;;;;;5012113;28;20045;-70
2022/06/21 00:59:49;;;;;;;8.00;3.90;;;;;;;;;;4994389;28;20498;-69
2022/06/21 01:02:21;;;;;;;9.23;4.43;;;;;;;;;;4994347;28;20057;-69
2022/06/21 01:04:49;;;;;;;10.20;4.20;;;;;;;;;;5011772;28;20074;-69
2022/06/21 01:07:16;;;;;;;9.13;3.83;;;;;;;;;;5012023;28;20164;-69
2022/06/21 01:09:42;;;;;;;10.27;4.22;;;;;;;;;;5010930;28;20540;-69
2022/06/21 01:12:12;;;;;;;7.80;4.40;;;;;;;;;;4994613;28;20085;-69
2022/06/21 01:14:41;;;;;;;9.98;4.72;;;;;;;;;;4993831;28;20050;-69
2022/06/21 01:17:08;;;;;;;7.45;3.95;;;;;;;;;;4994250;28;20088;-69
2022/06/21 01:20:06;;;;;;;10.43;3.17;;;;;;;;;;4993396;28;20496;-69
2022/06/21 01:22:44;;;;;;;8.77;3.53;;;;;;;;;;4966292;28;20058;-70
2022/06/21 01:25:28;;;;;;;8.02;3.92;;;;;;;;;;4969383;28;20503;-69
2022/06/21 01:27:55;;;;;;;10.10;4.65;;;;;;;;;;4938123;28;20150;-69
2022/06/21 01:30:23;;;;;;;10.13;4.00;;;;;;;;;;4969698;28;20511;-69
2022/06/21 01:32:50;;;;;;;7.20;4.05;;;;;;;;;;4963450;28;20430;-69
2022/06/21 01:35:21;;;;;;;7.00;3.75;;;;;;;;;;4963648;28;20101;-69
2022/06/21 01:37:47;;;;;;;8.73;3.38;;;;;;;;;;4953256;28;20059;-70
2022/06/21 01:40:18;;;;;;;7.15;3.80;;;;;;;;;;4969173;28;20043;-69
2022/06/21 01:42:46;;;;;;;13.63;4.45;;;;;;;;;;4953493;28;20054;-70
2022/06/21 01:45:15;;;;;;;10.97;4.33;;;;;;;;;;4969251;28;20085;-70
2022/06/21 01:47:47;;;;;;;8.80;4.47;;;;;;;;;;4952937;28;20348;-69
2022/06/21 01:50:13;;;;;;;13.18;4.43;;;;;;;;;;4955899;28;20050;-69
2022/06/21 01:52:43;;;;;;;7.78;4.72;;;;;;;;;;4972026;28;20582;-70
2022/06/21 01:55:12;;;;;;;11.80;4.47;;;;;;;;;;4972297;28;20232;-69
2022/06/21 01:57:37;;;;;;;;;;;;;;;;;;4985335;28;20061;-70
2022/06/21 02:00:04;;;;;;;13.30;5.80;;;;;;;;;;5009774;28;20274;-69
2022/06/21 02:02:32;;;;;;;10.30;5.80;;;;;;;;;;5009404;28;20053;-70
2022/06/21 02:05:04;;;;;;;11.50;6.45;;;;;;;;;;5011107;28;20103;-70
2022/06/21 02:07:33;;;;;;;12.88;6.10;;;;;;;;;;5010173;28;20057;-69
2022/06/21 02:10:12;;;;;;;9.73;5.97;;;;;;;;;;5009695;28;20181;-69
2022/06/21 02:12:38;;;;;;;;;;;;;;;;;;5009635;28;20095;-69
2022/06/21 02:15:06;;;;;;;13.18;5.38;;;;;;;;;;5010963;28;20308;-69
2022/06/21 02:17:40;;;;;;;16.58;6.55;;;;;;;;;;5010433;28;20099;-69
2022/06/21 02:20:13;;;;;;;19.23;7.22;;;;;;;;;;5010066;28;20410;-70
2022/06/21 02:22:39;;;;;;;12.18;6.57;;;;;;;;;;5009192;28;20046;-70
2022/06/21 02:25:06;;;;;;;16.48;7.22;;;;;;;;;;5010741;28;20474;-69
2022/06/21 02:27:33;;;;;;;15.15;6.25;;;;;;;;;;5008864;28;20260;-70
2022/06/21 02:30:01;;;;;;;11.05;5.38;;;;;;;;;;5009546;28;20042;-70
2022/06/21 02:32:37;;;;;;;7.68;4.55;;;;;;;;;;5025358;28;20041;-69
2022/06/21 02:35:25;;;;;;;10.18;5.30;;;;;;;;;;5009325;28;20038;-69
2022/06/21 02:37:53;;;;;;;10.23;4.32;;;;;;;;;;5008930;28;20050;-69
2022/06/21 02:40:22;;;;;;;8.05;4.10;;;;;;;;;;5010490;28;20101;-69
2022/06/21 02:42:49;;;;;;;10.80;4.55;;;;;;;;;;5010308;28;20132;-69
2022/06/21 02:45:19;;;;;;;11.57;4.65;;;;;;;;;;5010350;28;20049;-70
2022/06/21 02:47:45;;;;;;;11.18;4.65;;;;;;;;;;5009706;28;20053;-69
2022/06/21 02:50:14;;;;;;;12.63;4.22;;;;;;;;;;5025202;28;21191;-70
2022/06/21 02:52:40;;;;;;;;;;;;;;;;;;4992123;28;20054;-69
2022/06/21 02:55:21;;;;;;;14.88;5.63;;;;;;;;;;5010440;28;19948;-70
2022/06/21 02:57:52;;;;;;;13.20;4.85;;;;;;;;;;4992152;28;20049;-69
2022/06/21 03:00:20;;;;;;;16.63;5.47;;;;;;;;;;5010143;28;20037;-70
2022/06/21 03:02:46;;;;;;;14.73;6.30;;;;;;;;;;4992295;28;20427;-69
2022/06/21 03:05:14;;;;;;;17.42;6.68;;;;;;;;;;5010301;28;20085;-69
2022/06/21 03:07:42;;;;;;;12.85;7.53;;;;;;;;;;5009183;28;20038;-70
2022/06/21 03:10:15;;;;;;;12.93;8.15;;;;;;;;;;4992716;28;20061;-70
2022/06/21 03:12:41;;;;;;;11.70;8.15;;;;;;;;;;4992191;28;20149;-69
2022/06/21 03:15:11;;;;;;;11.88;6.63;;;;;;;;;;4992508;28;20577;-69
2022/06/21 03:17:42;;;;;;;18.70;7.45;;;;;;;;;;4991824;28;20093;-69
2022/06/21 03:20:18;;;;;;;16.17;8.77;;;;;;;;;;4991997;28;20093;-69
2022/06/21 03:22:44;;;;;;;13.85;7.90;;;;;;;;;;4991884;28;20045;-70
2022/06/21 03:25:22;;;;;;;14.93;9.65;;;;;;;;;;4992525;28;20069;-70
2022/06/21 03:27:54;;;;;;;17.17;10.30;;;;;;;;;;5009746;28;20129;-70
2022/06/21 03:30:21;;;;;;;13.18;8.60;;;;;;;;;;5010031;28;20054;-69
2022/06/21 03:32:49;;;;;;;24.50;9.20;;;;;;;;;;4991875;28;20557;-70
2022/06/21 03:35:15;;;;;;;15.70;9.60;;;;;;;;;;4991771;28;20064;-70
2022/06/21 03:37:42;;;;;;;14.02;7.82;;;;;;;;;;4991807;28;20057;-70
2022/06/21 03:42:54;;;;;;;17.02;8.63;;;;;;;;;;5009345;28;20070;-70
2022/06/21 03:45:24;;;;;;;18.00;7.55;;;;;;;;;;5013463;28;20053;-70
2022/06/21 03:47:59;;;;;;;20.10;10.13;;;;;;;;;;4995551;28;20105;-70
2022/06/21 03:50:43;;;;;;;19.55;8.95;;;;;;;;;;5013231;28;20407;-70
2022/06/21 03:53:24;;;;;;;17.48;9.38;;;;;;;;;;5013333;28;20093;-70
2022/06/21 03:56:01;;;;;;;16.05;9.25;;;;;;;;;;5013128;28;20088;-70
2022/06/21 03:58:46;;;;;;;12.68;8.98;;;;;;;;;;4995527;28;20073;-70
2022/06/21 04:01:21;;;;;;;15.55;8.70;;;;;;;;;;4995730;28;20050;-70
2022/06/21 04:03:58;;;;;;;13.07;8.93;;;;;;;;;;4995112;28;20133;-69
2022/06/21 04:06:26;;;;;;;13.35;9.02;;;;;;;;;;5013214;28;20099;-69
2022/06/21 04:08:56;;;;;;;12.37;8.37;;;;;;;;;;5013032;28;20115;-69
2022/06/21 04:11:26;;;;;;;37.08;13.82;;;;;;;;;;4995505;28;20765;-69
2022/06/21 04:13:52;;;;;;;21.48;10.10;;;;;;;;;;5012905;28;20537;-69
2022/06/21 04:16:23;;;;;;;12.02;7.43;;;;;;;;;;4995357;28;20046;-69
2022/06/21 04:18:52;;;;;;;18.50;11.45;;;;;;;;;;5012395;28;20085;-70
2022/06/21 04:21:24;;;;;;;20.00;11.48;;;;;;;;;;5012898;28;20046;-70
2022/06/21 04:23:58;;;;;;;39.75;15.52;;;;;;;;;;4994699;28;20564;-71
2022/06/21 04:26:34;;;;;;;18.40;9.32;;;;;;;;;;5012924;28;20049;-70
2022/06/21 04:29:18;;;;;;;64.45;18.58;;;;;;;;;;5007702;28;20042;-70
2022/06/21 04:32:11;;;;;;;14.50;9.88;;;;;;;;;;5016280;28;20126;-70
2022/06/21 04:34:44;;;;;;;35.50;13.20;;;;;;;;;;5026778;28;20099;-70
2022/06/21 04:37:28;;;;;;;30.23;12.20;;;;;;;;;;5013716;28;20406;-70
2022/06/21 04:39:58;;;;;;;16.25;9.80;;;;;;;;;;5013522;28;20064;-70
2022/06/21 04:42:33;;;;;;;19.35;10.80;;;;;;;;;;4997129;28;20079;-71
2022/06/21 04:45:29;;;;;;;14.25;8.88;;;;;;;;;;5013813;28;20049;-70
2022/06/21 04:48:06;;;;;;;15.52;9.18;;;;;;;;;;4992545;28;20111;-70
2022/06/21 04:50:37;;;;;;;64.65;18.75;;;;;;;;;;5015484;28;20057;-70
2022/06/21 04:53:05;;;;;;;56.25;17.40;;;;;;;;;;5031503;28;20049;-70
2022/06/21 04:55:41;;;;;;;25.67;9.20;;;;;;;;;;5028686;28;20394;-70
2022/06/21 04:58:08;;;;;;;19.05;8.73;;;;;;;;;;5031085;28;20087;-70
2022/06/21 05:00:35;;;;;;;20.35;9.73;;;;;;;;;;5029643;28;20183;-71
2022/06/21 05:03:04;;;;;;;13.63;9.15;;;;;;;;;;5030706;28;20395;-70
2022/06/21 05:05:32;;;;;;;14.23;8.65;;;;;;;;;;5029572;28;20080;-70
2022/06/21 05:08:19;;;;;;;13.30;8.07;;;;;;;;;;5013403;28;20048;-70
2022/06/21 05:10:48;;;;;;;15.10;9.25;;;;;;;;;;5029161;28;20451;-70
2022/06/21 05:13:35;;;;;;;11.32;8.00;;;;;;;;;;5031196;28;20045;-69
2022/06/21 05:16:02;;;;;;;14.05;8.68;;;;;;;;;;5028792;28;20061;-71
2022/06/21 05:18:35;;;;;;;20.70;10.20;;;;;;;;;;5029433;28;20555;-70
2022/06/21 05:21:03;;;;;;;14.45;8.75;;;;;;;;;;5029701;28;20045;-70
2022/06/21 05:23:31;;;;;;;14.17;9.37;;;;;;;;;;5029169;28;20085;-70
2022/06/21 05:26:00;;;;;;;44.53;14.00;;;;;;;;;;5030482;28;20057;-70
2022/06/21 05:28:26;;;;;;;;;;;;;;;;;;5029815;28;20049;-71
2022/06/21 05:30:57;;;;;;;15.02;8.77;;;;;;;;;;5030131;28;20013;-70
2022/06/21 05:33:27;;;;;;;13.07;7.60;;;;;;;;;;5030599;28;20041;-70
2022/06/21 05:35:53;;;;;;;34.60;13.07;;;;;;;;;;5030445;28;20123;-70
2022/06/21 05:38:23;;;;;;;10.82;7.15;;;;;;;;;;5029347;28;20528;-70
2022/06/21 05:40:57;;;;;;;17.98;8.30;;;;;;;;;;5012548;28;20045;-70
2022/06/21 05:43:26;;;;;;;16.90;7.57;;;;;;;;;;5028960;28;20087;-70
2022/06/21 05:45:55;;;;;;;11.38;7.50;;;;;;;;;;5028708;28;20332;-70
2022/06/21 05:48:23;;;;;;;12.63;7.30;;;;;;;;;;5029297;28;20049;-70
2022/06/21 05:50:49;;;;;;;23.83;8.55;;;;;;;;;;5028554;28;20061;-70
2022/06/21 05:53:26;;;;;;;11.30;7.15;;;;;;;;;;5028994;28;20115;-71
2022/06/21 05:55:52;;;;;;;12.27;6.28;;;;;;;;;;5029629;28;20095;-70
2022/06/21 05:58:28;;;;;;;11.57;6.57;;;;;;;;;;5028644;28;20088;-70
2022/06/21 06:01:12;;;;;;;11.07;7.03;;;;;;;;;;5011702;28;20127;-70
2022/06/21 06:03:50;;;;;;;13.25;6.60;;;;;;;;;;5028292;28;20049;-70
2022/06/21 06:06:18;;;;;;;17.73;7.93;;;;;;;;;;5029449;28;20521;-70
2022/06/21 06:08:47;;;;;;;9.27;6.32;;;;;;;;;;5028263;28;20046;-70
2022/06/21 06:11:15;;;;;;;12.27;6.15;;;;;;;;;;5029841;28;20124;-68
2022/06/21 06:13:41;;;;;;;14.23;6.50;;;;;;;;;;5028261;28;20072;-70
2022/06/21 06:16:13;;;;;;;9.73;6.05;;;;;;;;;;5027981;28;20413;-70
2022/06/21 06:18:51;;;;;;;11.15;6.50;;;;;;;;;;5029388;28;20410;-69
2022/06/21 06:21:23;;;;;;;9.52;5.85;;;;;;;;;;5032634;28;20057;-70
2022/06/21 06:23:49;;;;;;;15.30;7.05;;;;;;;;;;5010212;28;20104;-69
2022/06/21 06:26:17;;;;;;;30.75;11.18;;;;;;;;;;5022218;28;20091;-69
2022/06/21 06:29:03;;;;;;;13.55;5.68;;;;;;;;;;5027312;28;20045;-69
2022/06/21 06:31:29;;;;;;;12.82;6.30;;;;;;;;;;5028169;28;20288;-69
2022/06/21 06:33:58;;;;;;;22.95;10.35;;;;;;;;;;5027943;28;20568;-69
2022/06/21 06:36:30;;;;;;;28.55;8.98;;;;;;;;;;5028220;28;20045;-70
2022/06/21 06:38:57;;;;;;;50.53;14.05;;;;;;;;;;5028102;28;20390;-70
2022/06/21 06:41:31;;;;;;;22.55;8.60;;;;;;;;;;5028111;28;20049;-70
2022/06/21 06:43:58;;;;;;;13.40;5.82;;;;;;;;;;5027652;28;20057;-70
2022/06/21 06:46:27;;;;;;;10.50;2.85;;;;;;;;;;5011843;28;20128;-70
2022/06/21 06:48:53;;;;;;;;;;;;;;;;;;5028418;28;20052;-69
2022/06/21 06:51:32;;;;;;;8.10;2.17;;;;;;;;;;5028711;28;19921;-69
2022/06/21 06:53:59;;;;;;;20.02;5.95;;;;;;;;;;5029542;28;20095;-69
2022/06/21 06:56:29;;;;;;;13.52;4.05;;;;;;;;;;5011264;28;20088;-69
2022/06/21 06:59:00;;;;;;;17.20;4.95;;;;;;;;;;5011172;28;20049;-69
2022/06/21 07:01:29;;;;;;;19.63;6.13;;;;;;;;;;5028812;28;20045;-69
2022/06/21 07:04:00;;;;;;;13.57;5.60;;;;;;;;;;5028869;28;20398;-69
2022/06/21 07:06:32;;;;;;;8.07;2.83;;;;;;;;;;5010952;28;20056;-68
2022/06/21 07:09:01;;;;;;;13.93;3.90;;;;;;;;;;5029015;28;20382;-69
2022/06/21 07:11:33;;;;;;;10.07;2.70;;;;;;;;;;5022485;28;20129;-69
2022/06/21 07:14:00;;;;;;;8.07;2.75;;;;;;;;;;5011096;28;20111;-69
2022/06/21 07:16:26;;;;;;;5.25;2.30;;;;;;;;;;5010966;28;20136;-69
2022/06/21 07:18:53;;;;;;;8.77;2.70;;;;;;;;;;5013713;28;20045;-69
2022/06/21 07:21:20;;;;;;;5.70;2.60;;;;;;;;;;5015098;28;20045;-69
2022/06/21 07:23:47;;;;;;;6.07;2.53;;;;;;;;;;5032973;28;20411;-69
2022/06/21 07:26:27;;;;;;;11.32;3.05;;;;;;;;;;5015019;28;20049;-70
2022/06/21 07:28:55;;;;;;;15.07;4.00;;;;;;;;;;5015463;28;20053;-70
2022/06/21 07:31:32;;;;;;;7.82;2.67;;;;;;;;;;5033091;28;20045;-69
2022/06/21 07:33:58;;;;;;;7.43;2.80;;;;;;;;;;5032923;28;20046;-69
2022/06/21 07:36:28;;;;;;;15.07;4.53;;;;;;;;;;5014903;28;20079;-69
2022/06/21 07:38:57;;;;;;;4.88;2.30;;;;;;;;;;5015302;28;20050;-69
2022/06/21 07:41:52;;;;;;;5.07;2.22;;;;;;;;;;5032472;28;20382;-69
2022/06/21 07:44:28;;;;;;;8.52;2.10;;;;;;;;;;4994291;28;20097;-69
2022/06/21 07:46:57;;;;;;;6.95;2.55;;;;;;;;;;5014750;28;20053;-68
2022/06/21 07:49:26;;;;;;;6.45;2.50;;;;;;;;;;5015033;28;20502;-69
2022/06/21 07:51:57;;;;;;;7.80;2.55;;;;;;;;;;5027454;28;20413;-70
2022/06/21 07:54:31;;;;;;;47.55;11.43;;;;;;;;;;5031124;28;20056;-69
2022/06/21 07:56:59;;;;;;;51.40;11.23;;;;;;;;;;5031902;28;20406;-68
2022/06/21 07:59:27;;;;;;;25.15;7.57;;;;;;;;;;5030965;28;20049;-69
2022/06/21 08:07:36;;;;;;;6.32;2.35;;;;;;;;;;5030433;28;20051;-69
2022/06/21 08:10:05;;;;;;;13.10;3.92;;;;;;;;;;5031723;28;20087;-68
2022/06/21 08:12:31;;;;;;;4.90;2.00;;;;;;;;;;5013743;28;20041;-69
2022/06/21 08:14:59;;;;;;;4.30;2.20;;;;;;;;;;5030929;28;20060;-69
2022/06/21 08:17:33;;;;;;;6.63;2.00;;;;;;;;;;5032132;28;20299;-69
2022/06/21 08:20:18;;;;;;;8.70;2.92;;;;;;;;;;5032025;28;20042;-69
2022/06/21 08:22:47;;;;;;;4.97;1.90;;;;;;;;;;5031528;28;20042;-69
2022/06/21 08:25:19;;;;;;;6.20;2.28;;;;;;;;;;5025251;28;20124;-71
2022/06/21 08:27:49;;;;;;;11.38;3.85;;;;;;;;;;5030141;28;20049;-69
2022/06/21 08:30:25;;;;;;;5.57;1.90;;;;;;;;;;5013768;28;20049;-69
2022/06/21 08:33:00;;;;;;;7.00;2.28;;;;;;;;;;5030637;28;20042;-68
2022/06/21 08:35:34;;;;;;;10.63;2.75;;;;;;;;;;5031345;28;20457;-69
2022/06/21 08:38:13;;;;;;;6.97;2.10;;;;;;;;;;5031681;28;20045;-69
2022/06/21 08:40:39;;;;;;;;;;;;;;;;;;5031365;28;20052;-69
2022/06/21 08:43:11;;;;;;;12.18;2.38;;;;;;;;;;5030328;28;19999;-69
2022/06/21 08:45:43;;;;;;;6.35;2.05;;;;;;;;;;5030897;28;20095;-69
2022/06/21 08:48:28;;;;;;;16.08;3.92;;;;;;;;;;5031172;28;20120;-70
2022/06/21 08:50:57;;;;;;;6.03;1.67;;;;;;;;;;5012130;28;20057;-69
2022/06/21 08:53:29;;;;;;;7.13;2.03;;;;;;;;;;5011289;28;20087;-70
2022/06/21 08:55:55;;;;;;;5.32;1.75;;;;;;;;;;5011063;28;20298;-70
2022/06/21 08:58:33;;;;;;;9.73;2.70;;;;;;;;;;4993697;28;20057;-69
2022/06/21 09:01:02;;;;;;;31.40;6.45;;;;;;;;;;4993912;28;20046;-69
2022/06/21 09:03:37;;;;;;;5.55;1.70;;;;;;;;;;4993473;28;20133;-69
2022/06/21 09:06:29;;;;;;;4.72;1.77;;;;;;;;;;4993729;28;20100;-69
2022/06/21 09:09:14;;;;;;;4.20;1.50;;;;;;;;;;4945518;28;20054;-69
2022/06/21 09:11:51;;;;;;;5.13;1.40;;;;;;;;;;4990715;28;20051;-69
2022/06/21 09:14:29;;;;;;;6.65;1.70;;;;;;;;;;4992442;28;20458;-69
2022/06/21 09:16:55;;;;;;;6.03;1.50;;;;;;;;;;4991067;28;20076;-70
2022/06/21 09:19:21;;;;;;;5.70;1.70;;;;;;;;;;4990813;28;20046;-72
2022/06/21 09:21:58;;;;;;;9.52;2.47;;;;;;;;;;4991766;28;20046;-70
2022/06/21 09:24:27;;;;;;;9.77;2.40;;;;;;;;;;4990357;28;20049;-70
2022/06/21 09:27:04;;;;;;;18.30;5.03;;;;;;;;;;4992133;28;20525;-70
2022/06/21 09:29:45;;;;;;;4.47;1.70;;;;;;;;;;4990833;28;20050;-70
2022/06/21 09:32:12;;;;;;;5.15;1.73;;;;;;;;;;4990767;28;20050;-70
2022/06/21 09:34:57;;;;;;;3.10;1.63;;;;;;;;;;4990544;28;20050;-70
2022/06/21 09:37:33;;;;;;;4.53;1.65;;;;;;;;;;4991652;28;20058;-70
2022/06/21 09:40:16;;;;;;;4.53;1.58;;;;;;;;;;4991593;28;20527;-70
2022/06/21 09:43:00;;;;;;;4.18;1.60;;;;;;;;;;4989774;28;20050;-69
2022/06/21 09:45:37;;;;;;;6.38;1.77;;;;;;;;;;4957863;28;20042;-70
2022/06/21 09:48:10;;;;;;;4.50;1.67;;;;;;;;;;4991546;28;20049;-70
2022/06/21 09:50:39;;;;;;;4.45;1.65;;;;;;;;;;4997035;28;20064;-69
2022/06/21 09:53:31;;;;;;;5.47;1.50;;;;;;;;;;5010857;28;20050;-70
2022/06/21 09:56:03;;;;;;;4.70;1.92;;;;;;;;;;5007351;28;20065;-69
2022/06/21 09:58:33;;;;;;;3.78;1.55;;;;;;;;;;5009514;28;20048;-69
2022/06/21 10:01:09;;;;;;;4.75;1.90;;;;;;;;;;5010998;28;20081;-69
2022/06/21 10:03:42;;;;;;;2.97;1.35;;;;;;;;;;5010680;28;20042;-70
2022/06/21 10:06:08;;;;;;;9.15;2.30;;;;;;;;;;5010704;28;20058;-69
2022/06/21 10:08:40;;;;;;;3.03;1.67;;;;;;;;;;4992886;28;20451;-70
2022/06/21 10:11:44;;;;;;;4.05;1.80;;;;;;;;;;5011047;28;20466;-70
2022/06/21 10:14:15;;;;;;;5.22;2.50;;;;;;;;;;4943440;29;20052;-70
2022/06/21 10:16:41;;;;;;;14.70;3.92;;;;;;;;;;4949059;29;20059;-70
2022/06/21 10:19:17;;;;;;;5.60;1.70;;;;;;;;;;4933811;29;20051;-70
2022/06/21 10:22:06;;;;;;;7.28;2.30;;;;;;;;;;4948231;28;20043;-69
2022/06/21 10:24:39;;;;;;;6.00;1.40;;;;;;;;;;4940756;28;20049;-69
2022/06/21 10:27:08;;;;;;;4.03;1.52;;;;;;;;;;4936061;29;20123;-69
2022/06/21 10:29:37;;;;;;;3.70;1.92;;;;;;;;;;4949185;29;20209;-70
2022/06/21 10:32:21;;;;;;;4.38;1.75;;;;;;;;;;4949105;29;20062;-70
2022/06/21 10:35:13;;;;;;;4.78;1.33;;;;;;;;;;4949164;29;20675;-70
2022/06/21 10:37:40;;;;;;;5.45;1.67;;;;;;;;;;4948644;29;20090;-70
2022/06/21 10:40:18;;;;;;;3.40;1.15;;;;;;;;;;4933200;29;20059;-70
2022/06/21 10:42:50;;;;;;;3.13;1.60;;;;;;;;;;4948799;29;20069;-70
2022/06/21 10:45:25;;;;;;;3.30;1.42;;;;;;;;;;4987215;28;20471;-71
2022/06/21 10:48:14;;;;;;;16.60;3.28;;;;;;;;;;4994886;28;20418;-70
2022/06/21 10:50:46;;;;;;;2.78;1.45;;;;;;;;;;5016999;28;20106;-70
2022/06/21 10:53:28;;;;;;;4.47;1.17;;;;;;;;;;5009007;28;20060;-70
2022/06/21 10:58:53;;;;;;;3.38;1.30;;;;;;;;;;5005267;28;20061;-70
2022/06/21 11:01:21;;;;;;;3.95;1.33;;;;;;;;;;4992432;28;20050;-70
2022/06/21 11:03:56;;;;;;;3.55;1.42;;;;;;;;;;4992336;28;20485;-70
2022/06/21 11:06:25;;;;;;;5.10;1.58;;;;;;;;;;4992613;28;20450;-70
2022/06/21 11:08:57;;;;;;;4.68;1.08;;;;;;;;;;5008874;28;20514;-71
2022/06/21 11:11:26;;;;;;;3.67;1.20;;;;;;;;;;5009943;28;20390;-70
2022/06/21 11:14:04;;;;;;;3.08;1.00;;;;;;;;;;5009892;28;20100;-70
2022/06/21 11:16:48;;;;;;;3.72;1.05;;;;;;;;;;4991928;28;20046;-70
2022/06/21 11:19:17;;;;;;;3.67;1.00;;;;;;;;;;5009778;28;20046;-70
2022/06/21 11:21:51;;;;;;;3.13;1.00;;;;;;;;;;4991816;28;20057;-69
2022/06/21 11:24:24;;;;;;;5.05;1.00;;;;;;;;;;5009896;28;20042;-70
2022/06/21 11:27:02;;;;;;;4.65;1.60;;;;;;;;;;4992073;28;20080;-70
2022/06/21 11:29:40;;;;;;;3.15;1.00;;;;;;;;;;4992016;28;20049;-69
2022/06/21 11:32:06;;;;;;;;;;;;;;;;;;4992862;28;20500;-70
2022/06/21 11:34:52;;;;;;;3.22;0.80;;;;;;;;;;4975562;28;19932;-70
2022/06/21 11:37:24;;;;;;;2.92;0.80;;;;;;;;;;5006658;28;20108;-70
2022/06/21 11:40:17;;;;;;;2.00;0.80;;;;;;;;;;5028468;28;20123;-70
2022/06/21 11:42:48;;;;;;;6.28;1.67;;;;;;;;;;5010983;28;20493;-70
2022/06/21 11:45:37;;;;;;;2.47;1.23;;;;;;;;;;5022802;28;20537;-71
2022/06/21 11:48:08;;;;;;;3.22;1.20;;;;;;;;;;5015524;28;20084;-70
2022/06/21 11:50:54;;;;;;;4.72;1.20;;;;;;;;;;5012964;28;20106;-70
2022/06/21 11:53:36;;;;;;;2.97;0.82;;;;;;;;;;5030081;28;20050;-70
2022/06/21 11:56:18;;;;;;;2.22;1.10;;;;;;;;;;5009579;28;20042;-71
2022/06/21 11:58:56;;;;;;;5.65;1.80;;;;;;;;;;5009339;28;20049;-71
2022/06/21 12:01:22;;;;;;;;;;;;;;;;;;5010080;28;20038;-70
2022/06/21 12:04:07;;;;;;;2.78;0.90;;;;;;;;;;5007998;28;20439;-71
2022/06/21 12:06:33;;;;;;;3.53;1.00;;;;;;;;;;5015581;28;20073;-70
2022/06/21 12:08:59;;;;;;;6.55;1.85;;;;;;;;;;5023043;28;20556;-71
2022/06/21 12:11:34;;;;;;;4.47;1.38;;;;;;;;;;5032306;28;20480;-70
2022/06/21 12:14:04;;;;;;;3.70;1.20;;;;;;;;;;5012791;28;20045;-70
2022/06/21 12:16:30;;;;;;;3.33;1.08;;;;;;;;;;5030050;28;20132;-70
2022/06/21 12:19:07;;;;;;;4.05;0.95;;;;;;;;;;5026879;28;20081;-71
2022/06/21 12:21:36;;;;;;;2.72;1.00;;;;;;;;;;5034379;28;20517;-70
2022/06/21 12:24:06;;;;;;;6.57;1.42;;;;;;;;;;5018032;28;20077;-72
2022/06/21 12:26:34;;;;;;;2.08;0.70;;;;;;;;;;5016105;28;20046;-71
2022/06/21 12:29:00;;;;;;;2.00;0.52;;;;;;;;;;5015788;28;20034;-71
2022/06/21 12:31:26;;;;;;;4.75;1.00;;;;;;;;;;5014629;28;20413;-71
2022/06/21 12:34:02;;;;;;;2.92;0.90;;;;;;;;;;5017833;28;20046;-70
2022/06/21 12:36:36;;;;;;;2.05;0.75;;;;;;;;;;5012274;28;20061;-70
2022/06/21 12:39:07;;;;;;;2.30;0.70;;;;;;;;;;5032993;28;20045;-71
2022/06/21 12:42:08;;;;;;;2.00;0.75;;;;;;;;;;5018103;28;20116;-71
2022/06/21 12:44:53;;;;;;;16.10;3.70;;;;;;;;;;4997448;28;20046;-71
2022/06/21 12:47:20;;;;;;;4.18;0.70;;;;;;;;;;4992035;28;20137;-70
2022/06/21 12:49:46;;;;;;;6.85;1.58;;;;;;;;;;4992243;28;20057;-71
2022/06/21 12:52:25;;;;;;;1.60;0.70;;;;;;;;;;4997519;28;20084;-71
2022/06/21 12:54:57;;;;;;;2.92;0.95;;;;;;;;;;4998056;28;20534;-71
2022/06/21 12:57:41;;;;;;;2.45;0.65;;;;;;;;;;4992498;28;20129;-71
2022/06/21 13:00:11;;;;;;;2.35;0.82;;;;;;;;;;4988667;28;20412;-71
2022/06/21 13:02:55;;;;;;;4.72;1.20;;;;;;;;;;4986887;28;20042;-70
2022/06/21 13:05:37;;;;;;;3.38;0.82;;;;;;;;;;5001069;28;20530;-70
2022/06/21 13:08:10;;;;;;;2.70;1.00;;;;;;;;;;5007089;28;20438;-71
2022/06/21 13:10:48;;;;;;;9.07;3.08;;;;;;;;;;5000933;28;20042;-71
2022/06/21 13:13:32;;;;;;;21.70;5.20;;;;;;;;;;4996563;28;20077;-71
2022/06/21 13:16:07;;;;;;;7.13;1.90;;;;;;;;;;4991031;28;20537;-71
2022/06/21 13:18:52;;;;;;;3.80;0.88;;;;;;;;;;4997286;28;20068;-71
2022/06/21 13:21:27;;;;;;;3.28;1.05;;;;;;;;;;5010512;28;20046;-71
2022/06/21 13:24:12;;;;;;;3.05;0.70;;;;;;;;;;5010741;28;20085;-71
2022/06/21 13:26:47;;;;;;;2.38;0.80;;;;;;;;;;5010434;28;20549;-72
2022/06/21 13:29:22;;;;;;;2.22;0.82;;;;;;;;;;5009753;28;20049;-71
2022/06/21 13:31:57;;;;;;;3.42;0.90;;;;;;;;;;5011512;28;20473;-72
2022/06/21 13:34:23;;;;;;;8.68;2.22;;;;;;;;;;5041236;28;20054;-71
2022/06/21 13:36:51;;;;;;;3.07;0.60;;;;;;;;;;5029033;28;20084;-70
2022/06/21 13:39:17;;;;;;;3.78;0.85;;;;;;;;;;5029205;28;20115;-72
2022/06/21 13:44:45;;;;;;;34.83;10.23;;;;;;;;;;5029676;28;20049;-71
2022/06/21 13:47:11;;;;;;;;;;;;;;;;;;5030609;28;20183;-72
2022/06/21 13:49:42;;;;;;;4.82;1.10;;;;;;;;;;5045533;28;19968;-71
2022/06/21 13:52:18;;;;;;;5.00;1.55;;;;;;;;;;5029902;28;20137;-71
2022/06/21 13:54:52;;;;;;;10.23;2.22;;;;;;;;;;5012266;28;20128;-71
2022/06/21 13:57:33;;;;;;;2.70;1.27;;;;;;;;;;4993880;28;20053;-71
2022/06/21 13:59:59;;;;;;;18.10;5.55;;;;;;;;;;5012031;28;20445;-71
2022/06/21 14:02:25;;;;;;;4.28;1.42;;;;;;;;;;5029353;28;20506;-71
2022/06/21 14:05:06;;;;;;;4.22;1.40;;;;;;;;;;4995990;28;20052;-72
2022/06/21 14:07:38;;;;;;;6.20;2.67;;;;;;;;;;5029790;28;20064;-71
2022/06/21 14:10:04;;;;;;;4.05;1.60;;;;;;;;;;5029509;28;20564;-72
2022/06/21 14:12:36;;;;;;;3.47;1.52;;;;;;;;;;5011493;28;20419;-71
2022/06/21 14:15:09;;;;;;;3.20;1.42;;;;;;;;;;5012117;28;20041;-72
2022/06/21 14:17:39;;;;;;;2.53;0.90;;;;;;;;;;4993250;28;20049;-72
2022/06/21 14:20:08;;;;;;;3.53;1.30;;;;;;;;;;4993254;28;20188;-71
2022/06/21 14:22:39;;;;;;;2.92;1.10;;;;;;;;;;5010249;28;20060;-71
2022/06/21 14:25:13;;;;;;;2.70;0.60;;;;;;;;;;5010956;28;20037;-71
2022/06/21 14:27:44;;;;;;;5.90;1.48;;;;;;;;;;5009775;28;20132;-71
2022/06/21 14:30:10;;;;;;;3.65;1.30;;;;;;;;;;5010806;28;20037;-71
2022/06/21 14:32:40;;;;;;;2.25;0.80;;;;;;;;;;4992743;28;20060;-71
2022/06/21 14:35:08;;;;;;;5.32;1.25;;;;;;;;;;5010501;28;20087;-70
2022/06/21 14:37:48;;;;;;;3.08;1.05;;;;;;;;;;4992409;28;20049;-70
2022/06/21 14:40:17;;;;;;;5.07;1.10;;;;;;;;;;4993034;28;20038;-69
2022/06/21 14:42:50;;;;;;;5.05;1.40;;;;;;;;;;4992249;28;20056;-70
2022/06/21 14:45:25;;;;;;;9.25;1.88;;;;;;;;;;4992964;28;20064;-72
2022/06/21 14:47:55;;;;;;;4.13;1.00;;;;;;;;;;5010451;28;20133;-70
2022/06/21 14:50:28;;;;;;;4.10;1.10;;;;;;;;;;4993300;28;20062;-70
2022/06/21 14:53:06;;;;;;;3.33;1.45;;;;;;;;;;5010402;28;20053;-70
2022/06/21 14:55:32;;;;;;;4.65;1.45;;;;;;;;;;5008923;28;20184;-71
2022/06/21 14:58:17;;;;;;;5.00;1.20;;;;;;;;;;5008592;28;20050;-70
2022/06/21 15:00:57;;;;;;;2.95;1.10;;;;;;;;;;5009957;28;20046;-69
2022/06/21 15:03:29;;;;;;;9.18;2.40;;;;;;;;;;5010444;28;20168;-69
2022/06/21 15:05:59;;;;;;;5.65;1.05;;;;;;;;;;5008919;28;20061;-70
2022/06/21 15:08:30;;;;;;;2.70;0.77;;;;;;;;;;5008700;28;20066;-69
2022/06/21 15:11:04;;;;;;;2.92;0.98;;;;;;;;;;5021417;28;20057;-69
2022/06/21 15:13:43;;;;;;;3.80;1.20;;;;;;;;;;5009636;28;20049;-70
2022/06/21 15:16:14;;;;;;;7.55;2.22;;;;;;;;;;5008642;28;20046;-70
2022/06/21 15:18:47;;;;;;;9.30;3.97;;;;;;;;;;5009840;28;20045;-70
2022/06/21 15:21:15;;;;;;;7.90;3.28;;;;;;;;;;5008906;28;20564;-70
2022/06/21 15:23:42;;;;;;;;;;;;;;;;;;5010072;28;20085;-71
2022/06/21 15:26:20;;;;;;;3.05;1.30;;;;;;;;;;5009553;28;19925;-70